Time;durP1;ratioP1;P1;durP2;ratioP2;P2;SDS_P1;SDS_P2;PMS_P1;PMS_P2;Temp;Humidity;BMP_temperature;BMP_pressure;BME280_temperature;BME280_humidity;BME280_pressure;Samples;Min_cycle;Max_cycle;Signal;HPM_P1;HPM_P2
2021/12/14 00:00:43;;;;;;;;;;;8.30;99.90;;;;;;5062554;28;19962;-79
2021/12/14 00:03:10;;;;;;;;;;;8.20;99.90;;;;;;5067087;28;20228;-79
2021/12/14 00:05:36;;;;;;;;;;;8.30;99.90;;;;;;5108804;28;19924;-79
2021/12/14 00:08:02;;;;;;;;;;;8.20;99.90;;;;;;5074457;28;19920;-79
2021/12/14 00:13:12;;;;;;;;;;;8.20;99.90;;;;;;5088059;28;20369;-80
2021/12/14 00:15:38;;;;;;;;;;;8.20;99.90;;;;;;5095083;28;19924;-79
2021/12/14 00:18:06;;;;;;;;;;;8.10;99.90;;;;;;5077652;28;20274;-84
2021/12/14 00:20:37;;;;;;;;;;;8.20;99.90;;;;;;5128254;27;19924;-80
2021/12/14 00:25:32;;;;;;;;;;;8.30;99.90;;;;;;5093333;28;20005;-79
2021/12/14 00:27:59;;;;;;;;;;;8.20;99.90;;;;;;5077440;28;19975;-79
2021/12/14 00:30:25;;;;;;;;;;;8.30;99.90;;;;;;5081498;28;20521;-79
2021/12/14 00:32:50;;;;;;;;;;;8.30;99.90;;;;;;5078262;28;20007;-79
2021/12/14 00:35:16;;;;;;;;;;;8.30;99.90;;;;;;5064644;28;20007;-79
2021/12/14 00:37:47;;;;;;;;;;;8.30;99.90;;;;;;5061470;28;19925;-79
2021/12/14 00:40:23;;;;;;;;;;;8.20;99.90;;;;;;5075229;28;19970;-79
2021/12/14 00:42:49;;;;;;;;;;;8.30;99.90;;;;;;5085174;28;19930;-80
2021/12/14 00:45:16;;;;;;;;;;;8.30;99.90;;;;;;5075963;28;19927;-79
2021/12/14 00:47:42;;;;;;;;;;;8.20;99.90;;;;;;5076990;28;19924;-79
2021/12/14 00:50:08;;;;;;;;;;;8.20;99.90;;;;;;5076834;28;19920;-79
2021/12/14 00:52:34;;;;;;;;;;;8.20;99.90;;;;;;5065919;28;20030;-78
2021/12/14 00:55:00;;;;;;;;;;;8.20;99.90;;;;;;5076675;28;20412;-79
2021/12/14 00:57:25;;;;;;;;;;;8.10;99.90;;;;;;5076544;28;19968;-79
2021/12/14 00:59:51;;;;;;;;;;;8.20;99.90;;;;;;5090577;28;20259;-79
2021/12/14 01:02:19;;;;;;;;;;;8.20;99.90;;;;;;5058596;28;19924;-79
2021/12/14 01:04:49;;;;;;;;;;;8.10;99.90;;;;;;5057877;28;19924;-78
2021/12/14 01:07:17;;;;;;;;;;;8.20;99.90;;;;;;5089431;28;19924;-78
2021/12/14 01:09:45;;;;;;;;;;;8.20;99.90;;;;;;5077918;28;19969;-79
2021/12/14 01:12:16;;;;;;;;;;;8.20;99.90;;;;;;5093711;28;19928;-79
2021/12/14 01:14:47;;;;;;;;;;;8.10;99.90;;;;;;5093671;28;19925;-79
2021/12/14 01:17:27;;;;;;;;;;;8.10;99.90;;;;;;5075933;28;19924;-79
2021/12/14 01:19:56;;;;;;;;;;;8.20;99.90;;;;;;5073437;28;20000;-79
2021/12/14 01:22:41;;;;;;;;;;;8.00;99.90;;;;;;5078137;28;19970;-79
2021/12/14 01:25:08;;;;;;;;;;;8.10;99.90;;;;;;5083455;28;20004;-78
2021/12/14 01:27:35;;;;;;;;;;;8.10;99.90;;;;;;5076486;28;19924;-79
2021/12/14 01:30:07;;;;;;;;;;;8.10;99.90;;;;;;5092906;28;19928;-79
2021/12/14 01:32:37;;;;;;;;;;;8.10;99.90;;;;;;5073429;28;19932;-79
2021/12/14 01:35:10;;;;;;;;;;;8.10;99.90;;;;;;5078477;28;19947;-79
2021/12/14 01:37:42;;;;;;;;;;;8.10;99.90;;;;;;5086229;28;19924;-80
2021/12/14 01:40:19;;;;;;;;;;;8.10;99.90;;;;;;5060043;28;19924;-79
2021/12/14 01:42:46;;;;;;;;;;;8.10;99.90;;;;;;5081187;28;19966;-79
2021/12/14 01:45:20;;;;;;;;;;;8.20;99.90;;;;;;5065009;28;19931;-79
2021/12/14 01:47:48;;;;;;;;;;;8.10;99.90;;;;;;5076112;28;19928;-79
2021/12/14 01:50:18;;;;;;;;;;;8.10;99.90;;;;;;5082222;28;19927;-79
2021/12/14 01:52:44;;;;;;;;;;;8.10;99.90;;;;;;5079886;28;19967;-79
2021/12/14 01:55:12;;;;;;;;;;;8.20;99.90;;;;;;5088164;28;20037;-80
2021/12/14 01:57:38;;;;;;;;;;;8.20;99.90;;;;;;5092847;28;19926;-79
2021/12/14 02:00:07;;;;;;;;;;;8.10;99.90;;;;;;5090724;28;19935;-79
2021/12/14 02:02:42;;;;;;;;;;;8.20;99.90;;;;;;5106596;27;20266;-79
2021/12/14 02:05:14;;;;;;;;;;;8.20;99.90;;;;;;5075581;28;20293;-79
2021/12/14 02:07:39;;;;;;;;;;;8.10;99.90;;;;;;5088796;28;19928;-79
2021/12/14 02:10:10;;;;;;;;;;;8.20;99.90;;;;;;5072326;28;20003;-79
2021/12/14 02:12:39;;;;;;;;;;;8.20;99.90;;;;;;5072579;28;19931;-79
2021/12/14 02:15:08;;;;;;;;;;;8.20;99.90;;;;;;5085908;28;20460;-82
2021/12/14 02:17:33;;;;;;;;;;;8.20;99.90;;;;;;5071941;28;20361;-79
2021/12/14 02:19:59;;;;;;;;;;;8.20;99.90;;;;;;5089216;28;19935;-80
2021/12/14 02:22:25;;;;;;;;;;;8.20;99.90;;;;;;5116881;27;19966;-79
2021/12/14 02:24:51;;;;;;;;;;;8.20;99.90;;;;;;5055745;28;19932;-80
2021/12/14 02:27:17;;;;;;;;;;;8.30;99.90;;;;;;5058190;28;20111;-78
2021/12/14 02:29:44;;;;;;;;;;;8.30;99.90;;;;;;5076888;28;19968;-79
2021/12/14 02:32:12;;;;;;;;;;;8.30;99.90;;;;;;5092068;28;20035;-79
2021/12/14 02:35:03;;;;;;;;;;;8.30;99.90;;;;;;5091881;28;20660;-79
2021/12/14 02:37:46;;;;;;;;;;;8.30;99.90;;;;;;5084633;28;20003;-79
2021/12/14 02:40:19;;;;;;;;;;;8.30;99.90;;;;;;5064445;28;19932;-79
2021/12/14 02:42:49;;;;;;;;;;;8.30;99.90;;;;;;5104036;28;19928;-80
2021/12/14 02:45:16;;;;;;;;;;;8.30;99.90;;;;;;5071005;28;19932;-80
2021/12/14 02:47:41;;;;;;;;;;;8.20;99.90;;;;;;5071555;28;19924;-78
2021/12/14 02:50:07;;;;;;;;;;;8.30;99.90;;;;;;5107223;28;19924;-80
2021/12/14 02:52:36;;;;;;;;;;;8.30;99.90;;;;;;5055169;28;20392;-79
2021/12/14 02:55:07;;;;;;;;;;;8.20;99.90;;;;;;5108004;28;19945;-84
2021/12/14 02:57:35;;;;;;;;;;;8.20;99.90;;;;;;5067706;28;19976;-79
2021/12/14 03:00:03;;;;;;;;;;;8.20;99.90;;;;;;5091608;28;19924;-84
2021/12/14 03:02:29;;;;;;;;;;;8.10;99.90;;;;;;5071912;28;19999;-84
2021/12/14 03:05:02;;;;;;;;;;;8.10;99.90;;;;;;5091961;28;20325;-78
2021/12/14 03:07:30;;;;;;;;;;;8.10;99.90;;;;;;5054415;28;19931;-78
2021/12/14 03:10:05;;;;;;;;;;;8.00;99.90;;;;;;5105071;28;19924;-79
2021/12/14 03:12:34;;;;;;;;;;;7.90;99.90;;;;;;5090384;28;19931;-79
2021/12/14 03:15:18;;;;;;;;;;;8.00;99.90;;;;;;5083204;28;19934;-79
2021/12/14 03:17:46;;;;;;;;;;;7.90;99.90;;;;;;5120760;28;19924;-80
2021/12/14 03:20:11;;;;;;;;;;;7.90;99.90;;;;;;5075129;28;19924;-79
2021/12/14 03:22:46;;;;;;;;;;;7.80;99.90;;;;;;5065278;28;19925;-79
2021/12/14 03:25:13;;;;;;;;;;;7.80;99.90;;;;;;5071093;28;19924;-79
2021/12/14 03:27:40;;;;;;;;;;;7.90;99.90;;;;;;5083049;28;19925;-80
2021/12/14 03:30:12;;;;;;;;;;;7.80;99.90;;;;;;5080997;28;20278;-86
2021/12/14 03:32:38;;;;;;;;;;;7.80;99.90;;;;;;5071545;28;20349;-79
2021/12/14 03:35:04;;;;;;;;;;;7.80;99.90;;;;;;5054598;28;19976;-79
2021/12/14 03:37:29;;;;;;;;;;;7.80;99.90;;;;;;5071067;28;19990;-79
2021/12/14 03:39:58;;;;;;;;;;;7.80;99.90;;;;;;5105329;28;19928;-80
2021/12/14 03:42:36;;;;;;;;;;;7.80;99.90;;;;;;5075336;28;20285;-79
2021/12/14 03:45:03;;;;;;;;;;;7.90;99.90;;;;;;5075784;28;19959;-79
2021/12/14 03:47:34;;;;;;;;;;;7.90;99.90;;;;;;5107666;28;19924;-80
2021/12/14 03:50:03;;;;;;;;;;;7.90;99.90;;;;;;5093868;28;19932;-79
2021/12/14 03:52:33;;;;;;;;;;;7.90;99.90;;;;;;5082380;28;20238;-80
2021/12/14 03:55:00;;;;;;;;;;;7.90;99.90;;;;;;5087407;28;19931;-80
2021/12/14 03:57:26;;;;;;;;;;;7.90;99.90;;;;;;5086844;28;19923;-79
2021/12/14 03:59:51;;;;;;;;;;;7.90;99.90;;;;;;5094343;28;20291;-79
2021/12/14 04:02:17;;;;;;;;;;;7.90;99.90;;;;;;5077370;28;20344;-79
2021/12/14 04:04:47;;;;;;;;;;;7.90;99.90;;;;;;5092504;28;19924;-79
2021/12/14 04:07:15;;;;;;;;;;;7.90;99.90;;;;;;5087278;28;19924;-79
2021/12/14 04:09:42;;;;;;;;;;;8.00;99.90;;;;;;5108260;28;19954;-79
2021/12/14 04:12:09;;;;;;;;;;;8.00;99.90;;;;;;5092190;28;19924;-79
2021/12/14 04:14:39;;;;;;;;;;;8.00;99.90;;;;;;5102597;28;20018;-83
2021/12/14 04:17:06;;;;;;;;;;;8.10;99.90;;;;;;5061228;28;20407;-80
2021/12/14 04:19:35;;;;;;;;;;;8.00;99.90;;;;;;5077091;28;19931;-79
2021/12/14 04:22:03;;;;;;;;;;;8.00;99.90;;;;;;5093862;28;20380;-81
2021/12/14 04:24:30;;;;;;;;;;;8.10;99.90;;;;;;5077532;28;20033;-79
2021/12/14 04:26:57;;;;;;;;;;;8.00;99.90;;;;;;5108924;28;20456;-80
2021/12/14 04:29:22;;;;;;;;;;;8.10;99.90;;;;;;5079208;28;20014;-79
2021/12/14 04:31:50;;;;;;;;;;;8.10;99.90;;;;;;5080738;28;20014;-79
2021/12/14 04:34:17;;;;;;;;;;;8.00;99.90;;;;;;5080710;28;20292;-80
2021/12/14 04:36:44;;;;;;;;;;;8.00;99.90;;;;;;5072165;28;20039;-79
2021/12/14 04:39:33;;;;;;;;;;;8.00;99.90;;;;;;5080012;28;19935;-79
2021/12/14 04:53:09;;;;;;;;;;;8.10;99.90;;;;;;5117459;27;19923;-80
2021/12/14 04:55:36;;;;;;;;;;;8.10;99.90;;;;;;5080448;28;20578;-81
2021/12/14 04:58:02;;;;;;;;;;;8.10;99.90;;;;;;5088417;28;20019;-79
2021/12/14 05:00:47;;;;;;;;;;;8.10;99.90;;;;;;5094599;28;19963;-82
2021/12/14 05:03:15;;;;;;;;;;;8.10;99.90;;;;;;5096474;28;20360;-80
2021/12/14 05:05:47;;;;;;;;;;;8.10;99.90;;;;;;5094422;28;20463;-81
2021/12/14 05:10:44;;;;;;;;;;;8.10;99.90;;;;;;5090519;28;20365;-79
2021/12/14 05:13:09;;;;;;;;;;;8.10;99.90;;;;;;5094694;28;19950;-81
2021/12/14 05:15:36;;;;;;;;;;;8.10;99.90;;;;;;5080058;28;19924;-79
2021/12/14 05:18:01;;;;;;;;;;;8.10;99.90;;;;;;5096871;28;19947;-80
2021/12/14 05:20:27;;;;;;;;;;;8.10;99.90;;;;;;5093082;28;20368;-80
2021/12/14 05:22:52;;;;;;;;;;;8.10;99.90;;;;;;5084469;28;19930;-80
2021/12/14 05:25:25;;;;;;;;;;;8.20;99.90;;;;;;5079474;28;20380;-88
2021/12/14 05:27:52;;;;;;;;;;;8.10;99.90;;;;;;5096033;28;19928;-80
2021/12/14 05:30:27;;;;;;;;;;;8.10;99.90;;;;;;5095992;28;19924;-86
2021/12/14 05:32:57;;;;;;;;;;;8.10;99.90;;;;;;5062696;28;20396;-79
2021/12/14 05:35:24;;;;;;;;;;;8.10;99.90;;;;;;5079428;28;20250;-79
2021/12/14 05:37:52;;;;;;;;;;;8.10;99.90;;;;;;5062229;28;19927;-80
2021/12/14 05:40:37;;;;;;;;;;;8.20;99.90;;;;;;5061327;28;19928;-82
2021/12/14 05:43:09;;;;;;;;;;;8.10;99.90;;;;;;5096371;28;19982;-79
2021/12/14 05:45:37;;;;;;;;;;;8.10;99.90;;;;;;5079147;28;19924;-81
2021/12/14 05:48:03;;;;;;;;;;;8.10;99.90;;;;;;5088355;28;19928;-80
2021/12/14 05:50:49;;;;;;;;;;;8.10;99.90;;;;;;5085743;28;19924;-82
2021/12/14 05:53:41;;;;;;;;;;;8.10;99.90;;;;;;5109645;28;20007;-80
2021/12/14 05:56:11;;;;;;;;;;;8.10;99.90;;;;;;5078283;28;19923;-80
2021/12/14 05:58:37;;;;;;;;;;;8.10;99.90;;;;;;5095814;28;19973;-80
2021/12/14 06:01:07;;;;;;;;;;;8.00;99.90;;;;;;5092713;28;19927;-80
2021/12/14 06:03:38;;;;;;;;;;;7.90;99.90;;;;;;5078886;28;19924;-80
2021/12/14 06:06:03;;;;;;;;;;;7.90;99.90;;;;;;5095479;28;19928;-79
2021/12/14 06:08:31;;;;;;;;;;;7.90;99.90;;;;;;5078342;28;20296;-80
2021/12/14 06:10:57;;;;;;;;;;;7.90;99.90;;;;;;5067841;28;20011;-79
2021/12/14 06:13:36;;;;;;;;;;;7.90;99.90;;;;;;5059009;28;19924;-79
2021/12/14 06:16:02;;;;;;;;;;;7.90;99.90;;;;;;5109292;28;20436;-79
2021/12/14 06:18:27;;;;;;;;;;;7.90;99.90;;;;;;5092165;28;20003;-80
2021/12/14 06:20:53;;;;;;;;;;;7.80;99.90;;;;;;5075252;28;20027;-79
2021/12/14 06:23:23;;;;;;;;;;;7.80;99.90;;;;;;5092474;28;19928;-83
2021/12/14 06:25:48;;;;;;;;;;;7.80;99.90;;;;;;5075068;28;19935;-79
2021/12/14 06:28:21;;;;;;;;;;;7.80;99.90;;;;;;5088055;28;19928;-79
2021/12/14 06:30:46;;;;;;;;;;;7.80;99.90;;;;;;5064168;28;20732;-77
2021/12/14 06:33:12;;;;;;;;;;;7.70;99.90;;;;;;5076981;28;19924;-77
2021/12/14 06:35:47;;;;;;;;;;;7.80;99.90;;;;;;5080976;28;19950;-77
2021/12/14 06:38:28;;;;;;;;;;;7.80;99.90;;;;;;5083485;28;20060;-77
2021/12/14 06:40:56;;;;;;;;;;;7.80;99.90;;;;;;5112698;28;20459;-79
2021/12/14 06:43:57;;;;;;;;;;;7.80;99.90;;;;;;5094391;28;19923;-78
2021/12/14 06:46:26;;;;;;;;;;;7.80;99.90;;;;;;5006767;28;20434;-78
2021/12/14 06:48:53;;;;;;;;;;;7.80;99.90;;;;;;5062358;28;20380;-78
2021/12/14 06:51:21;;;;;;;;;;;7.90;99.90;;;;;;5095442;27;19927;-79
2021/12/14 06:53:50;;;;;;;;;;;7.80;99.90;;;;;;5115047;27;19972;-78
2021/12/14 06:56:17;;;;;;;;;;;7.80;99.90;;;;;;5084862;28;19924;-77
2021/12/14 06:58:48;;;;;;;;;;;7.80;99.90;;;;;;5086253;28;19938;-78
2021/12/14 07:01:17;;;;;;;;;;;7.80;99.90;;;;;;5088337;28;19928;-77
2021/12/14 07:03:46;;;;;;;;;;;7.80;99.90;;;;;;5107780;28;19924;-77
2021/12/14 07:06:31;;;;;;;;;;;7.80;99.90;;;;;;5072128;28;19948;-77
2021/12/14 07:09:11;;;;;;;;;;;7.80;99.90;;;;;;5094036;28;19923;-79
2021/12/14 07:11:38;;;;;;;;;;;7.80;99.90;;;;;;5077484;28;20298;-77
2021/12/14 07:14:07;;;;;;;;;;;7.80;99.90;;;;;;5128960;28;19967;-79
2021/12/14 07:16:37;;;;;;;;;;;7.80;99.90;;;;;;5111462;28;19978;-82
2021/12/14 07:19:04;;;;;;;;;;;7.80;99.90;;;;;;5077859;28;19927;-77
2021/12/14 07:21:39;;;;;;;;;;;7.90;99.90;;;;;;5094572;28;20018;-77
2021/12/14 07:24:26;;;;;;;;;;;7.80;99.90;;;;;;5128885;28;20678;-76
2021/12/14 07:27:12;;;;;;;;;;;7.80;99.90;;;;;;5111293;28;19931;-77
2021/12/14 07:29:37;;;;;;;;;;;7.80;99.90;;;;;;5094238;28;19923;-77
2021/12/14 07:32:03;;;;;;;;;;;7.80;99.90;;;;;;5078121;28;20027;-77
2021/12/14 07:34:29;;;;;;;;;;;7.80;99.90;;;;;;5094331;28;19927;-77
2021/12/14 07:36:54;;;;;;;;;;;7.70;99.90;;;;;;5093905;28;19923;-77
2021/12/14 07:39:20;;;;;;;;;;;7.80;99.90;;;;;;5077027;28;19928;-78
2021/12/14 07:41:47;;;;;;;;;;;7.80;99.90;;;;;;5094312;28;19938;-77
2021/12/14 07:44:15;;;;;;;;;;;7.80;99.90;;;;;;5077943;28;19982;-77
2021/12/14 07:46:40;;;;;;;;;;;7.90;99.90;;;;;;5093644;28;19935;-77
2021/12/14 07:49:25;;;;;;;;;;;7.90;99.90;;;;;;5111467;28;20284;-77
2021/12/14 07:51:53;;;;;;;;;;;7.90;99.90;;;;;;5127697;28;20376;-77
2021/12/14 07:54:24;;;;;;;;;;;7.90;99.90;;;;;;5112568;28;19927;-83
2021/12/14 07:56:52;;;;;;;;;;;7.90;99.90;;;;;;5097251;28;20389;-77
2021/12/14 07:59:27;;;;;;;;;;;7.90;99.90;;;;;;5132639;27;19927;-76
2021/12/14 08:02:11;;;;;;;;;;;7.90;99.90;;;;;;5097595;28;19924;-75
2021/12/14 08:04:38;;;;;;;;;;;7.90;99.90;;;;;;5132103;27;20296;-84
2021/12/14 08:07:04;;;;;;;;;;;7.90;99.90;;;;;;5080776;28;19927;-80
2021/12/14 08:09:32;;;;;;;;;;;7.90;99.90;;;;;;5097839;28;20014;-76
2021/12/14 08:11:58;;;;;;;;;;;7.90;99.90;;;;;;5080325;28;19963;-76
2021/12/14 08:14:25;;;;;;;;;;;7.90;99.90;;;;;;5097986;28;19927;-77
2021/12/14 08:17:06;;;;;;;;;;;7.90;99.90;;;;;;5097012;28;19932;-77
2021/12/14 08:19:40;;;;;;;;;;;7.90;99.90;;;;;;5097689;28;19946;-77
2021/12/14 08:22:07;;;;;;;;;;;8.00;99.90;;;;;;5097696;28;19928;-78
2021/12/14 08:24:33;;;;;;;;;;;8.00;99.90;;;;;;5097555;28;20372;-77
2021/12/14 08:27:00;;;;;;;;;;;8.00;99.90;;;;;;5096846;28;19953;-79
2021/12/14 08:29:28;;;;;;;;;;;8.00;99.90;;;;;;5081120;28;19973;-77
2021/12/14 08:32:08;;;;;;;;;;;8.00;99.90;;;;;;5115484;28;19986;-76
2021/12/14 08:34:36;;;;;;;;;;;8.00;99.90;;;;;;5081028;28;19928;-77
2021/12/14 08:37:01;;;;;;;;;;;8.10;99.90;;;;;;5115325;28;19920;-77
2021/12/14 08:39:33;;;;;;;;;;;8.00;99.90;;;;;;5097562;28;19984;-76
2021/12/14 08:42:10;;;;;;;;;;;8.10;99.90;;;;;;5115178;28;20608;-81
2021/12/14 08:44:39;;;;;;;;;;;8.10;99.90;;;;;;5080367;28;20295;-77
2021/12/14 08:47:12;;;;;;;;;;;8.10;99.90;;;;;;5080014;28;19930;-77
2021/12/14 08:49:38;;;;;;;;;;;8.10;99.90;;;;;;5080604;28;20262;-77
2021/12/14 08:52:05;;;;;;;;;;;8.10;99.90;;;;;;5096897;28;19923;-77
2021/12/14 08:54:32;;;;;;;;;;;8.10;99.90;;;;;;5097442;28;19981;-77
2021/12/14 08:57:04;;;;;;;;;;;8.10;99.90;;;;;;5096720;28;20464;-77
2021/12/14 08:59:30;;;;;;;;;;;8.10;99.90;;;;;;5097398;28;20339;-77
2021/12/14 09:01:56;;;;;;;;;;;8.10;99.90;;;;;;5096889;28;19923;-77
2021/12/14 09:04:24;;;;;;;;;;;8.20;99.90;;;;;;5097052;28;19924;-77
2021/12/14 09:06:52;;;;;;;;;;;8.20;99.90;;;;;;5095749;28;19928;-77
2021/12/14 09:09:19;;;;;;;;;;;8.10;99.90;;;;;;5114929;28;19947;-76
2021/12/14 09:11:46;;;;;;;;;;;8.20;99.90;;;;;;5096681;28;19928;-82
2021/12/14 09:14:13;;;;;;;;;;;8.20;99.90;;;;;;5131328;27;20014;-77
2021/12/14 09:16:40;;;;;;;;;;;8.20;99.90;;;;;;5113525;28;20044;-78
2021/12/14 09:19:12;;;;;;;;;;;8.20;99.90;;;;;;5130319;27;20010;-77
2021/12/14 09:21:40;;;;;;;;;;;8.20;99.90;;;;;;5096647;28;20014;-77
2021/12/14 09:24:07;;;;;;;;;;;8.20;99.90;;;;;;5114113;28;19931;-77
2021/12/14 09:26:35;;;;;;;;;;;8.20;99.90;;;;;;5130478;27;19923;-77
2021/12/14 09:29:04;;;;;;;;;;;8.20;99.90;;;;;;5096089;28;19924;-77
2021/12/14 09:31:32;;;;;;;;;;;8.20;99.90;;;;;;5096343;28;19927;-77
2021/12/14 09:33:59;;;;;;;;;;;8.30;99.90;;;;;;5096072;28;20277;-77
2021/12/14 09:36:29;;;;;;;;;;;8.30;99.90;;;;;;5096740;28;20068;-77
2021/12/14 09:39:02;;;;;;;;;;;8.20;99.90;;;;;;5096272;28;19971;-77
2021/12/14 09:41:33;;;;;;;;;;;8.30;99.90;;;;;;5096709;28;19924;-76
2021/12/14 09:44:01;;;;;;;;;;;8.30;99.90;;;;;;5079349;28;19930;-79
2021/12/14 09:46:27;;;;;;;;;;;8.40;99.90;;;;;;5078781;28;20038;-77
2021/12/14 09:48:55;;;;;;;;;;;8.40;99.90;;;;;;5095793;28;20451;-77
2021/12/14 09:51:23;;;;;;;;;;;8.40;99.90;;;;;;5079677;28;19934;-77
2021/12/14 09:53:49;;;;;;;;;;;8.30;99.90;;;;;;5113768;28;20526;-89
2021/12/14 09:56:18;;;;;;;;;;;8.40;99.90;;;;;;5078788;28;20355;-77
2021/12/14 09:58:47;;;;;;;;;;;8.30;99.90;;;;;;5113888;28;20038;-77
2021/12/14 10:01:16;;;;;;;;;;;8.40;99.90;;;;;;5129839;27;19963;-77
2021/12/14 10:03:43;;;;;;;;;;;8.40;99.90;;;;;;5113778;28;19924;-77
2021/12/14 10:06:10;;;;;;;;;;;8.40;99.90;;;;;;5128720;27;19923;-83
2021/12/14 10:08:38;;;;;;;;;;;8.40;99.90;;;;;;5078872;28;19948;-77
2021/12/14 10:11:14;;;;;;;;;;;8.40;99.90;;;;;;5078919;28;20023;-77
2021/12/14 10:13:42;;;;;;;;;;;8.40;99.90;;;;;;5079359;28;20272;-77
2021/12/14 10:16:11;;;;;;;;;;;8.40;99.90;;;;;;5095450;28;20411;-77
2021/12/14 10:18:43;;;;;;;;;;;8.40;99.90;;;;;;5079076;28;19923;-77
2021/12/14 10:21:11;;;;;;;;;;;8.40;99.90;;;;;;5113555;28;19935;-81
2021/12/14 10:23:38;;;;;;;;;;;8.40;99.90;;;;;;5095847;28;20057;-77
2021/12/14 10:26:04;;;;;;;;;;;8.40;99.90;;;;;;5078028;28;20477;-77
2021/12/14 10:28:31;;;;;;;;;;;8.40;99.90;;;;;;5095828;28;19927;-77
2021/12/14 10:30:59;;;;;;;;;;;8.40;99.90;;;;;;5095007;28;19924;-77
2021/12/14 10:33:26;;;;;;;;;;;8.40;99.90;;;;;;5113726;28;19924;-77
2021/12/14 10:35:55;;;;;;;;;;;8.40;99.90;;;;;;5113397;28;20487;-77
2021/12/14 10:43:38;;;;;;;;;;;8.50;99.90;;;;;;5113433;28;19931;-77
2021/12/14 10:46:16;;;;;;;;;;;8.40;99.90;;;;;;5060802;28;20006;-78
2021/12/14 10:48:43;;;;;;;;;;;8.50;99.90;;;;;;5095292;28;20039;-77
2021/12/14 10:51:12;;;;;;;;;;;8.40;99.90;;;;;;5094177;28;20402;-77
2021/12/14 10:53:43;;;;;;;;;;;8.50;99.90;;;;;;5095146;28;19979;-78
2021/12/14 10:56:13;;;;;;;;;;;8.40;99.90;;;;;;5094912;28;19928;-82
2021/12/14 10:58:39;;;;;;;;;;;8.50;99.90;;;;;;5094018;28;20685;-77
2021/12/14 11:01:07;;;;;;;;;;;8.40;99.90;;;;;;5094027;28;19931;-81
2021/12/14 11:03:35;;;;;;;;;;;8.40;99.90;;;;;;5094917;28;20352;-77
2021/12/14 11:06:04;;;;;;;;;;;8.50;99.90;;;;;;5112633;28;19928;-77
2021/12/14 11:08:42;;;;;;;;;;;8.50;99.90;;;;;;5094984;28;20151;-77
2021/12/14 11:11:10;;;;;;;;;;;8.40;99.90;;;;;;5094914;28;20430;-77
2021/12/14 11:13:37;;;;;;;;;;;8.50;99.90;;;;;;5078446;28;19930;-78
2021/12/14 11:16:03;;;;;;;;;;;8.50;99.90;;;;;;5094170;28;20014;-77
2021/12/14 11:18:28;;;;;;;;;;;8.50;99.90;;;;;;5094816;28;20356;-77
2021/12/14 11:21:05;;;;;;;;;;;8.50;99.90;;;;;;5094835;28;19927;-77
2021/12/14 11:23:36;;;;;;;;;;;8.50;99.90;;;;;;5095196;28;19924;-80
2021/12/14 11:26:02;;;;;;;;;;;8.60;99.90;;;;;;5093892;28;19923;-84
2021/12/14 11:28:29;;;;;;;;;;;8.60;99.90;;;;;;5094898;28;19930;-77
2021/12/14 11:30:57;;;;;;;;;;;8.60;99.90;;;;;;5080074;28;19931;-77
2021/12/14 11:33:28;;;;;;;;;;;8.50;99.90;;;;;;5098627;28;19928;-77
2021/12/14 11:36:10;;;;;;;;;;;8.50;99.90;;;;;;5098633;28;19931;-77
2021/12/14 11:38:38;;;;;;;;;;;8.60;99.90;;;;;;5098891;28;19982;-78
2021/12/14 11:41:22;;;;;;;;;;;8.60;99.90;;;;;;5116496;28;19963;-77
2021/12/14 11:43:50;;;;;;;;;;;8.60;99.90;;;;;;5098572;28;20387;-77
2021/12/14 11:46:16;;;;;;;;;;;8.60;99.90;;;;;;5097839;28;19923;-77
2021/12/14 11:48:42;;;;;;;;;;;8.60;99.90;;;;;;5098644;28;19931;-77
2021/12/14 11:51:08;;;;;;;;;;;8.60;99.90;;;;;;5098281;28;19924;-78
2021/12/14 11:53:33;;;;;;;;;;;8.60;99.90;;;;;;5098826;28;19924;-77
2021/12/14 11:56:01;;;;;;;;;;;8.60;99.90;;;;;;5116633;28;19924;-79
2021/12/14 11:58:36;;;;;;;;;;;8.70;99.90;;;;;;5098379;28;19931;-77
2021/12/14 12:01:20;;;;;;;;;;;8.60;99.90;;;;;;5098648;28;19948;-77
2021/12/14 12:04:04;;;;;;;;;;;8.60;99.90;;;;;;5098478;28;19927;-77
2021/12/14 12:11:51;;;;;;;;;;;8.60;99.90;;;;;;5098396;28;19923;-77
2021/12/14 12:14:20;;;;;;;;;;;8.60;99.90;;;;;;5098142;28;19976;-77
2021/12/14 12:16:45;;;;;;;;;;;8.60;99.90;;;;;;5098397;28;19931;-78
2021/12/14 12:19:14;;;;;;;;;;;8.60;99.90;;;;;;5115753;28;20368;-78
2021/12/14 12:21:41;;;;;;;;;;;8.70;99.90;;;;;;5098063;28;19928;-78
2021/12/14 12:24:26;;;;;;;;;;;8.70;99.90;;;;;;5115838;28;19928;-78
2021/12/14 12:26:52;;;;;;;;;;;8.70;99.90;;;;;;5097714;28;20024;-77
2021/12/14 12:29:25;;;;;;;;;;;8.70;99.90;;;;;;5115683;28;20395;-77
2021/12/14 12:31:58;;;;;;;;;;;8.70;99.90;;;;;;5098148;28;20014;-77
2021/12/14 12:34:33;;;;;;;;;;;8.70;99.90;;;;;;5097250;28;19982;-78
2021/12/14 12:36:59;;;;;;;;;;;8.70;99.90;;;;;;5080717;28;20343;-79
2021/12/14 12:39:29;;;;;;;;;;;8.80;99.90;;;;;;5096437;28;19928;-78
2021/12/14 12:41:58;;;;;;;;;;;8.70;99.90;;;;;;5095843;28;19969;-77
2021/12/14 12:44:27;;;;;;;;;;;8.70;99.90;;;;;;5097086;28;19977;-79
2021/12/14 12:46:56;;;;;;;;;;;8.80;99.90;;;;;;5097020;28;20403;-77
2021/12/14 12:49:29;;;;;;;;;;;8.70;99.90;;;;;;5097060;28;19969;-77
2021/12/14 12:52:07;;;;;;;;;;;8.80;99.90;;;;;;5080429;28;20011;-78
2021/12/14 12:54:51;;;;;;;;;;;8.80;99.90;;;;;;5079632;28;20304;-78
2021/12/14 12:57:31;;;;;;;;;;;8.80;99.90;;;;;;5079983;28;19977;-78
2021/12/14 13:00:08;;;;;;;;;;;8.80;99.90;;;;;;5097567;28;20057;-78
2021/12/14 13:02:40;;;;;;;;;;;8.90;99.90;;;;;;5096724;28;19923;-78
2021/12/14 13:05:15;;;;;;;;;;;8.90;99.90;;;;;;5080303;28;19924;-77
2021/12/14 13:07:45;;;;;;;;;;;8.90;99.90;;;;;;5130849;27;19928;-77
2021/12/14 13:10:40;;;;;;;;;;;8.90;99.90;;;;;;5079617;28;19928;-88
2021/12/14 13:13:18;;;;;;;;;;;8.90;99.90;;;;;;5041380;28;19925;-77
2021/12/14 13:15:53;;;;;;;;;;;9.00;99.90;;;;;;5096013;28;19924;-78
2021/12/14 13:18:25;;;;;;;;;;;9.00;99.90;;;;;;5095560;28;19973;-82
2021/12/14 13:20:56;;;;;;;;;;;9.00;99.90;;;;;;5095999;28;19932;-78
2021/12/14 13:23:36;;;;;;;;;;;9.00;99.90;;;;;;5095662;28;19924;-77
2021/12/14 13:26:17;;;;;;;;;;;8.90;99.90;;;;;;5095631;28;20388;-78
2021/12/14 13:28:43;;;;;;;;;;;9.00;99.90;;;;;;5113933;28;19924;-78
2021/12/14 13:31:08;;;;;;;;;;;9.00;99.90;;;;;;5095768;28;19928;-83
2021/12/14 13:33:34;;;;;;;;;;;9.00;99.90;;;;;;5129568;27;20010;-78
2021/12/14 13:36:00;;;;;;;;;;;9.00;99.90;;;;;;5129989;27;20053;-77
2021/12/14 13:38:25;;;;;;;;;;;9.00;99.90;;;;;;5129475;27;19928;-78
2021/12/14 13:40:53;;;;;;;;;;;9.00;99.90;;;;;;5095401;28;19934;-78
2021/12/14 13:43:19;;;;;;;;;;;9.00;99.90;;;;;;5078270;28;19935;-84
2021/12/14 13:45:44;;;;;;;;;;;9.00;99.90;;;;;;5094944;28;19924;-78
2021/12/14 13:48:12;;;;;;;;;;;9.00;99.90;;;;;;5095438;28;19939;-80
2021/12/14 13:50:43;;;;;;;;;;;9.00;99.90;;;;;;5094940;28;20014;-78
2021/12/14 13:53:09;;;;;;;;;;;9.00;99.90;;;;;;5129078;27;19927;-80
2021/12/14 13:55:45;;;;;;;;;;;9.00;99.90;;;;;;5094886;28;20262;-77
2021/12/14 13:58:16;;;;;;;;;;;9.00;99.90;;;;;;5129166;27;19939;-78
2021/12/14 14:00:56;;;;;;;;;;;9.00;99.90;;;;;;5094950;28;19924;-78
2021/12/14 14:03:26;;;;;;;;;;;9.00;99.90;;;;;;5112041;28;19928;-77
2021/12/14 14:05:52;;;;;;;;;;;9.00;99.90;;;;;;5112779;28;20036;-77
2021/12/14 14:08:25;;;;;;;;;;;9.00;99.90;;;;;;5129061;27;20338;-87
2021/12/14 14:10:52;;;;;;;;;;;9.00;99.90;;;;;;5095155;28;19928;-78
2021/12/14 14:13:26;;;;;;;;;;;9.00;99.90;;;;;;5112014;28;20034;-88
2021/12/14 14:15:53;;;;;;;;;;;9.00;99.90;;;;;;5095162;28;19953;-77
2021/12/14 14:18:24;;;;;;;;;;;9.00;99.90;;;;;;5094791;28;19924;-85
2021/12/14 14:20:51;;;;;;;;;;;9.00;99.90;;;;;;5078271;28;19928;-78
2021/12/14 14:23:22;;;;;;;;;;;9.00;99.90;;;;;;5094735;28;19930;-78
2021/12/14 14:25:59;;;;;;;;;;;9.00;99.90;;;;;;5094935;28;19930;-78
2021/12/14 14:28:26;;;;;;;;;;;9.00;99.90;;;;;;5111232;28;20014;-78
2021/12/14 14:30:54;;;;;;;;;;;9.00;99.90;;;;;;5128915;27;19927;-78
2021/12/14 14:33:23;;;;;;;;;;;9.00;99.90;;;;;;5078048;28;19953;-84
2021/12/14 14:35:55;;;;;;;;;;;9.00;99.90;;;;;;5112884;28;19977;-80
2021/12/14 14:38:26;;;;;;;;;;;9.00;99.90;;;;;;5129198;27;19971;-86
2021/12/14 14:40:56;;;;;;;;;;;9.00;99.90;;;;;;5078441;28;19928;-78
2021/12/14 14:43:22;;;;;;;;;;;9.00;99.90;;;;;;5129276;27;19972;-81
2021/12/14 14:45:48;;;;;;;;;;;9.00;99.90;;;;;;5078174;28;19927;-77
2021/12/14 14:48:21;;;;;;;;;;;9.10;99.90;;;;;;5095259;28;19942;-77
2021/12/14 14:50:47;;;;;;;;;;;9.00;99.90;;;;;;5094496;28;19924;-77
2021/12/14 14:53:15;;;;;;;;;;;9.00;99.90;;;;;;5094826;28;19947;-77
2021/12/14 14:55:45;;;;;;;;;;;9.00;99.90;;;;;;5077529;28;19931;-77
2021/12/14 14:58:21;;;;;;;;;;;9.00;99.90;;;;;;5095008;28;19934;-78
2021/12/14 15:00:57;;;;;;;;;;;9.00;99.90;;;;;;5128998;27;20368;-77
2021/12/14 15:03:25;;;;;;;;;;;9.00;99.90;;;;;;5095107;28;19924;-82
2021/12/14 15:05:51;;;;;;;;;;;9.00;99.90;;;;;;5128462;27;19930;-77
2021/12/14 15:08:22;;;;;;;;;;;9.00;99.90;;;;;;5094620;28;19923;-78
2021/12/14 15:11:07;;;;;;;;;;;9.00;99.90;;;;;;5094365;28;19968;-77
2021/12/14 15:13:51;;;;;;;;;;;9.00;99.90;;;;;;5094541;28;19949;-77
2021/12/14 15:16:19;;;;;;;;;;;9.00;99.90;;;;;;5095115;28;19924;-77